Terminal Aerodrome Forecast
Issued by NWS Northern Indiana

Home | Current Version | Previous Version | Text Only | Print | Product List | Glossary On
Versions: 1 2 3 4 5 6 7 8 9 10 11 12 13 14 15
000
FTUS43 KIWX 310600 AAA
TAFFWA
TAF AMD
KFWA 310651Z 3107/0106 22008KT P6SM VCSH BKN035 OVC150
      TEMPO 3108/3111 3SM -SHRA SCT015 OVC025
     FM311100 22005KT 4SM BR VCSH BKN008 OVC015
     FM311500 23007KT P6SM OVC020
     FM312000 22006KT P6SM BKN035=

USA.gov is the U.S. government's official web portal to all federal, state and local government web resources and services.